Time;durP1;ratioP1;P1;durP2;ratioP2;P2;SDS_P1;SDS_P2;PMS_P1;PMS_P2;Temp;Humidity;BMP_temperature;BMP_pressure;BME280_temperature;BME280_humidity;BME280_pressure;Samples;Min_cycle;Max_cycle;Signal;HPM_P1;HPM_P2
2024/02/16 00:00:25;;;;;;;4.40;3.30;;;12.20;99.90;;;;;;4964704;28;20038;-73
2024/02/16 00:02:51;;;;;;;4.57;3.05;;;12.20;99.90;;;;;;4964059;28;20035;-74
2024/02/16 00:05:17;;;;;;;3.63;2.90;;;12.20;99.90;;;;;;4964353;28;20837;-74
2024/02/16 00:07:43;;;;;;;4.93;3.17;;;12.20;99.90;;;;;;4964094;28;20511;-73
2024/02/16 00:10:09;;;;;;;4.68;2.80;;;12.10;99.90;;;;;;4964395;28;20058;-73
2024/02/16 00:12:36;;;;;;;3.80;3.20;;;12.20;99.90;;;;;;4962153;28;20038;-73
2024/02/16 00:15:02;;;;;;;4.75;2.50;;;12.20;99.90;;;;;;4964219;28;20841;-74
2024/02/16 00:17:28;;;;;;;4.30;2.97;;;12.20;99.90;;;;;;4964443;28;20042;-73
2024/02/16 00:19:58;;;;;;;5.63;2.92;;;12.20;99.90;;;;;;4964177;28;20042;-73
2024/02/16 00:22:24;;;;;;;4.88;3.25;;;12.20;99.90;;;;;;4962431;28;20477;-73
2024/02/16 00:24:50;;;;;;;5.38;3.30;;;12.10;99.90;;;;;;4963719;28;20023;-73
2024/02/16 00:27:16;;;;;;;4.53;3.50;;;12.10;99.90;;;;;;4963879;28;20062;-73
2024/02/16 00:29:43;;;;;;;5.03;3.10;;;12.10;99.90;;;;;;4964011;28;20023;-73
2024/02/16 00:32:09;;;;;;;4.50;3.13;;;12.10;99.90;;;;;;4962906;28;20390;-72
2024/02/16 00:34:36;;;;;;;6.00;3.08;;;12.00;99.90;;;;;;4963669;28;20031;-73
2024/02/16 00:37:09;;;;;;;4.05;2.95;;;12.00;99.90;;;;;;4964957;28;20039;-73
2024/02/16 00:39:36;;;;;;;9.80;3.45;;;12.00;99.90;;;;;;4962243;28;20320;-72
2024/02/16 00:42:03;;;;;;;6.35;3.30;;;12.10;99.90;;;;;;4960219;28;20042;-72
2024/02/16 00:44:29;;;;;;;5.38;3.47;;;12.10;99.90;;;;;;4964432;28;20034;-73
2024/02/16 00:46:54;;;;;;;5.05;3.35;;;12.10;99.90;;;;;;4957758;28;20050;-73
2024/02/16 00:49:20;;;;;;;7.70;3.90;;;12.10;99.90;;;;;;4960539;28;20055;-73
2024/02/16 00:51:46;;;;;;;7.63;3.85;;;12.10;99.90;;;;;;4963138;28;20062;-72
2024/02/16 00:54:12;;;;;;;5.88;4.03;;;12.10;99.90;;;;;;4963045;28;20438;-73
2024/02/16 00:56:38;;;;;;;5.32;3.75;;;12.10;99.90;;;;;;4963322;28;20047;-72
2024/02/16 00:59:04;;;;;;;6.00;4.35;;;12.00;99.90;;;;;;4966030;28;20125;-73
2024/02/16 01:01:30;;;;;;;7.03;4.00;;;12.10;99.90;;;;;;4966422;28;20510;-72
2024/02/16 01:03:56;;;;;;;6.45;4.43;;;12.00;99.90;;;;;;4967179;28;20734;-72
2024/02/16 01:06:22;;;;;;;4.63;3.80;;;11.90;99.90;;;;;;4965868;28;20027;-72
2024/02/16 01:08:48;;;;;;;7.68;4.57;;;11.90;99.90;;;;;;4966411;28;20019;-73
2024/02/16 01:11:14;;;;;;;8.63;4.57;;;11.90;99.90;;;;;;4966295;28;20097;-72
2024/02/16 01:13:40;;;;;;;7.28;4.93;;;11.90;99.90;;;;;;4966595;28;20395;-72
2024/02/16 01:16:07;;;;;;;9.13;4.88;;;11.90;99.90;;;;;;4967213;28;20033;-72
2024/02/16 01:18:36;;;;;;;8.55;4.90;;;11.90;99.90;;;;;;4966217;28;20418;-72
2024/02/16 01:21:03;;;;;;;9.80;5.57;;;11.80;99.90;;;;;;4967745;28;20039;-72
2024/02/16 01:23:29;;;;;;;7.22;4.68;;;11.80;99.90;;;;;;4966725;28;20114;-72
2024/02/16 01:25:55;;;;;;;7.93;5.07;;;11.80;99.90;;;;;;4966102;28;20114;-72
2024/02/16 01:28:22;;;;;;;7.45;5.28;;;11.80;99.90;;;;;;4965689;28;20101;-72
2024/02/16 01:30:49;;;;;;;9.70;5.68;;;11.80;99.90;;;;;;4966386;28;20029;-72
2024/02/16 01:33:15;;;;;;;10.38;6.57;;;11.80;99.90;;;;;;4964677;28;20062;-72
2024/02/16 01:35:41;;;;;;;10.13;6.03;;;11.80;99.90;;;;;;4966810;28;20201;-72
2024/02/16 01:38:07;;;;;;;8.70;5.50;;;11.70;99.90;;;;;;4965080;28;20042;-72
2024/02/16 01:40:33;;;;;;;9.90;5.90;;;11.70;99.90;;;;;;4966850;28;20035;-72
2024/02/16 01:42:59;;;;;;;10.48;6.40;;;11.70;99.90;;;;;;4964558;28;20045;-73
2024/02/16 01:45:24;;;;;;;11.25;7.10;;;11.70;99.90;;;;;;4965822;28;20049;-73
2024/02/16 01:47:51;;;;;;;9.70;6.45;;;11.80;99.90;;;;;;4966289;28;20483;-72
2024/02/16 01:50:18;;;;;;;10.30;6.75;;;11.70;99.90;;;;;;4964052;28;20023;-72
2024/02/16 01:52:46;;;;;;;10.80;6.85;;;11.70;99.90;;;;;;4965410;28;20035;-73
2024/02/16 01:55:12;;;;;;;10.68;6.22;;;11.80;99.90;;;;;;4966252;28;20034;-73
2024/02/16 01:57:46;;;;;;;13.40;7.20;;;11.70;99.90;;;;;;4965378;28;20042;-73
2024/02/16 02:00:14;;;;;;;11.35;6.47;;;11.80;99.90;;;;;;4965327;28;20038;-73
2024/02/16 02:02:43;;;;;;;13.75;6.88;;;11.70;99.90;;;;;;4966199;28;20034;-72
2024/02/16 02:05:09;;;;;;;10.00;6.40;;;11.70;99.90;;;;;;4967130;28;20435;-72
2024/02/16 02:07:35;;;;;;;15.23;7.57;;;11.70;99.90;;;;;;4964547;28;20069;-72
2024/02/16 02:10:01;;;;;;;11.15;7.85;;;11.70;99.90;;;;;;4965373;28;20059;-72
2024/02/16 02:12:27;;;;;;;11.27;7.03;;;11.70;99.90;;;;;;4965771;28;20034;-73
2024/02/16 02:14:52;;;;;;;9.88;6.22;;;11.70;99.90;;;;;;4965627;28;20046;-73
2024/02/16 02:17:18;;;;;;;9.05;6.80;;;11.60;99.90;;;;;;4965851;28;20083;-73
2024/02/16 02:19:48;;;;;;;13.75;7.20;;;11.60;99.90;;;;;;4964528;28;20034;-73
2024/02/16 02:22:20;;;;;;;12.10;7.03;;;11.50;99.90;;;;;;4965161;28;20603;-73
2024/02/16 02:24:48;;;;;;;10.35;6.93;;;11.50;99.90;;;;;;4964302;28;20030;-73
2024/02/16 02:27:15;;;;;;;11.20;7.32;;;11.50;99.90;;;;;;4965746;28;20038;-72
2024/02/16 02:29:41;;;;;;;13.57;7.60;;;11.50;99.90;;;;;;4964992;28;20736;-73
2024/02/16 02:32:08;;;;;;;11.80;6.78;;;11.50;99.90;;;;;;4965413;28;20114;-73
2024/02/16 02:34:34;;;;;;;10.65;7.68;;;11.50;99.90;;;;;;4965389;28;20386;-73
2024/02/16 02:37:00;;;;;;;11.15;7.40;;;11.50;99.90;;;;;;4965591;28;20099;-73
2024/02/16 02:39:27;;;;;;;11.32;7.63;;;11.50;99.90;;;;;;4964953;28;20027;-73
2024/02/16 02:41:53;;;;;;;12.23;7.82;;;11.50;99.90;;;;;;4963383;28;20765;-72
2024/02/16 02:44:21;;;;;;;12.98;7.47;;;11.50;99.90;;;;;;4965272;28;20038;-73
2024/02/16 02:46:47;;;;;;;11.70;7.88;;;11.50;99.90;;;;;;4965803;28;20082;-73
2024/02/16 02:49:13;;;;;;;10.82;7.53;;;11.50;99.90;;;;;;4947967;28;20026;-74
2024/02/16 02:51:39;;;;;;;13.57;7.57;;;11.50;99.90;;;;;;4964538;28;20031;-73
2024/02/16 02:54:05;;;;;;;15.38;7.80;;;11.50;99.90;;;;;;4961634;28;20034;-73
2024/02/16 02:56:31;;;;;;;11.40;7.82;;;11.50;99.90;;;;;;4964864;28;20038;-72
2024/02/16 02:58:57;;;;;;;15.90;7.75;;;11.50;99.90;;;;;;4965876;28;20050;-72
2024/02/16 03:01:23;;;;;;;11.27;7.40;;;11.50;99.90;;;;;;4964606;28;20046;-72
2024/02/16 03:03:49;;;;;;;15.13;8.00;;;11.40;99.90;;;;;;4964259;28;20178;-73
2024/02/16 03:06:21;;;;;;;11.68;6.97;;;11.50;99.90;;;;;;4964669;28;20534;-72
2024/02/16 03:08:47;;;;;;;10.32;7.15;;;11.50;99.90;;;;;;4964187;28;20046;-72
2024/02/16 03:11:13;;;;;;;13.82;7.95;;;11.50;99.90;;;;;;4964399;28;20034;-72
2024/02/16 03:13:39;;;;;;;14.50;8.75;;;11.50;99.90;;;;;;4964766;28;20037;-72
2024/02/16 03:16:06;;;;;;;12.85;8.02;;;11.50;99.90;;;;;;4963980;28;20509;-73
2024/02/16 03:18:33;;;;;;;12.52;7.05;;;11.60;99.90;;;;;;4964528;28;20042;-73
2024/02/16 03:20:58;;;;;;;11.43;6.93;;;11.50;99.90;;;;;;4963327;28;20039;-72
2024/02/16 03:23:24;;;;;;;13.20;8.27;;;11.50;99.90;;;;;;4963720;28;20196;-73
2024/02/16 03:25:50;;;;;;;11.50;7.55;;;11.50;99.90;;;;;;4964517;28;20033;-73
2024/02/16 03:28:16;;;;;;;14.90;7.63;;;11.50;99.90;;;;;;4965008;28;20019;-72
2024/02/16 03:30:43;;;;;;;11.13;6.97;;;11.50;99.90;;;;;;4965470;28;20053;-72
2024/02/16 03:33:10;;;;;;;12.23;7.55;;;11.60;99.90;;;;;;4964179;28;20035;-73
2024/02/16 03:35:36;;;;;;;12.40;8.07;;;11.50;99.90;;;;;;4964385;28;20043;-73
2024/02/16 03:38:03;;;;;;;12.18;7.45;;;11.50;99.90;;;;;;4963049;28;20037;-72
2024/02/16 03:40:29;;;;;;;14.15;8.20;;;11.50;99.90;;;;;;4964582;28;20053;-73
2024/02/16 03:42:55;;;;;;;12.50;7.30;;;11.50;99.90;;;;;;4964673;28;20546;-73
2024/02/16 03:45:22;;;;;;;10.98;6.95;;;11.50;99.90;;;;;;4964526;28;20082;-72
2024/02/16 03:47:56;;;;;;;10.00;7.55;;;11.50;99.90;;;;;;4964280;28;20038;-73
2024/02/16 03:50:22;;;;;;;12.50;7.80;;;11.40;99.90;;;;;;4961111;28;20048;-73
2024/02/16 03:52:48;;;;;;;16.02;7.75;;;11.50;99.90;;;;;;4962372;28;20803;-72
2024/02/16 03:55:14;;;;;;;12.65;7.63;;;11.50;99.90;;;;;;4962734;28;20038;-73
2024/02/16 03:57:40;;;;;;;10.82;7.20;;;11.50;99.90;;;;;;4964161;28;20042;-72
2024/02/16 04:00:08;;;;;;;14.52;7.60;;;11.50;99.90;;;;;;4964573;28;20030;-72
2024/02/16 04:02:40;;;;;;;14.15;7.22;;;11.50;99.90;;;;;;4975664;28;20027;-73
2024/02/16 04:05:07;;;;;;;12.70;7.07;;;11.50;99.90;;;;;;4964096;28;20022;-73
2024/02/16 04:07:34;;;;;;;10.45;6.65;;;11.50;99.90;;;;;;4963777;28;20022;-73
2024/02/16 04:10:00;;;;;;;14.35;7.72;;;11.50;99.90;;;;;;4963964;28;20557;-73
2024/02/16 04:12:26;;;;;;;10.60;7.45;;;11.50;99.90;;;;;;4964231;28;20034;-73
2024/02/16 04:14:52;;;;;;;11.95;7.47;;;11.40;99.90;;;;;;4962775;28;20062;-73
2024/02/16 04:17:18;;;;;;;14.98;6.93;;;11.40;99.90;;;;;;4964007;28;20066;-72
2024/02/16 04:19:44;;;;;;;13.63;7.75;;;11.40;99.90;;;;;;4964299;28;20035;-72
2024/02/16 04:22:10;;;;;;;11.70;7.50;;;11.30;99.90;;;;;;4964180;28;20085;-72
2024/02/16 04:24:35;;;;;;;11.65;6.60;;;11.30;99.90;;;;;;4964138;28;20483;-73
2024/02/16 04:27:01;;;;;;;12.30;7.22;;;11.40;99.90;;;;;;4963306;28;20075;-73
2024/02/16 04:29:27;;;;;;;12.88;7.20;;;11.30;99.90;;;;;;4963852;28;20098;-73
2024/02/16 04:31:53;;;;;;;14.55;7.20;;;11.30;99.90;;;;;;4963304;28;20038;-73
2024/02/16 04:34:19;;;;;;;13.02;7.32;;;11.40;99.90;;;;;;4966946;28;20087;-73
2024/02/16 04:36:45;;;;;;;11.18;7.45;;;11.30;99.90;;;;;;4967765;28;20054;-73
2024/02/16 04:39:12;;;;;;;13.32;7.13;;;11.20;99.90;;;;;;4966658;28;20515;-73
2024/02/16 04:41:38;;;;;;;12.40;7.85;;;11.20;99.90;;;;;;4966962;28;20039;-72
2024/02/16 04:44:04;;;;;;;16.58;7.35;;;11.10;99.90;;;;;;4967096;28;20490;-73
2024/02/16 04:46:29;;;;;;;9.50;6.65;;;11.00;99.90;;;;;;4967273;28;20035;-72
2024/02/16 04:48:55;;;;;;;12.32;7.32;;;11.00;99.90;;;;;;4967234;28;20043;-72
2024/02/16 04:51:21;;;;;;;12.50;6.75;;;11.00;99.90;;;;;;4966863;28;20033;-72
2024/02/16 04:53:48;;;;;;;10.93;6.40;;;11.00;99.90;;;;;;4967444;28;20034;-73
2024/02/16 04:56:13;;;;;;;11.05;7.50;;;11.00;99.90;;;;;;4967652;28;20035;-73
2024/02/16 04:58:43;;;;;;;14.75;7.00;;;11.00;99.90;;;;;;4965610;28;20037;-72
2024/02/16 05:01:08;;;;;;;12.57;6.15;;;11.10;99.90;;;;;;4981628;28;20542;-72
2024/02/16 05:03:34;;;;;;;11.30;6.50;;;11.10;99.90;;;;;;4967315;28;20027;-73
2024/02/16 05:06:00;;;;;;;13.27;7.20;;;11.00;99.90;;;;;;4967551;28;20039;-73
2024/02/16 05:08:26;;;;;;;9.68;5.93;;;11.00;99.90;;;;;;4967117;28;20031;-72
2024/02/16 05:10:52;;;;;;;10.63;6.15;;;11.00;99.90;;;;;;4965556;28;20052;-72
2024/02/16 05:13:18;;;;;;;11.75;6.30;;;11.00;99.90;;;;;;4967279;28;20042;-73
2024/02/16 05:15:44;;;;;;;10.20;6.13;;;11.00;99.90;;;;;;4966824;28;20038;-72
2024/02/16 05:18:12;;;;;;;10.70;6.20;;;11.00;99.90;;;;;;4967042;28;20041;-72
2024/02/16 05:20:38;;;;;;;11.63;6.10;;;11.10;99.90;;;;;;4966732;28;20045;-72
2024/02/16 05:23:04;;;;;;;13.30;6.28;;;11.10;99.90;;;;;;4965747;28;20137;-72
2024/02/16 05:25:30;;;;;;;12.48;6.25;;;11.10;99.90;;;;;;4966459;28;20109;-72
2024/02/16 05:27:56;;;;;;;9.70;5.35;;;11.10;99.90;;;;;;4966854;28;20030;-72
2024/02/16 05:30:21;;;;;;;9.13;5.28;;;11.10;99.90;;;;;;4965332;28;20462;-72
2024/02/16 05:32:48;;;;;;;11.20;6.20;;;11.10;99.90;;;;;;4965756;28;20033;-72
2024/02/16 05:35:16;;;;;;;8.90;5.43;;;11.10;99.90;;;;;;4966662;28;20035;-72
2024/02/16 05:37:44;;;;;;;12.07;6.63;;;11.00;99.90;;;;;;4966632;28;20038;-72
2024/02/16 05:40:27;;;;;;;11.32;5.95;;;11.00;99.90;;;;;;4966298;28;20109;-72
2024/02/16 05:42:54;;;;;;;8.63;5.82;;;10.90;99.90;;;;;;4964782;28;20039;-72
2024/02/16 05:45:21;;;;;;;9.90;5.60;;;10.90;99.90;;;;;;4963562;28;20038;-72
2024/02/16 05:47:47;;;;;;;11.43;6.18;;;10.80;99.90;;;;;;4966225;28;20038;-72
2024/02/16 05:50:13;;;;;;;8.40;5.18;;;10.80;99.90;;;;;;4965958;28;20442;-72
2024/02/16 05:52:40;;;;;;;9.07;5.43;;;10.80;99.90;;;;;;4966474;28;20085;-72
2024/02/16 05:55:08;;;;;;;10.43;5.25;;;10.80;99.90;;;;;;4966569;28;20073;-72
2024/02/16 05:57:34;;;;;;;9.05;5.50;;;10.80;99.90;;;;;;4966333;28;20109;-72
2024/02/16 06:00:05;;;;;;;10.93;5.13;;;10.80;99.90;;;;;;4966414;28;20043;-72
2024/02/16 06:02:34;;;;;;;12.57;5.22;;;10.90;99.90;;;;;;4965864;28;20042;-72
2024/02/16 06:05:03;;;;;;;10.00;6.10;;;11.00;99.90;;;;;;4966175;28;20038;-72
2024/02/16 06:07:32;;;;;;;10.20;5.43;;;10.90;99.90;;;;;;4965769;28;20431;-72
2024/02/16 06:09:58;;;;;;;9.07;5.30;;;10.90;99.90;;;;;;4965934;28;20044;-72
2024/02/16 06:12:24;;;;;;;6.78;4.30;;;11.00;99.90;;;;;;4965437;28;20030;-72
2024/02/16 06:14:50;;;;;;;10.13;4.85;;;11.00;99.90;;;;;;4965348;28;20093;-72
2024/02/16 06:17:16;;;;;;;11.82;6.18;;;11.10;99.90;;;;;;4964394;28;20031;-72
2024/02/16 06:19:43;;;;;;;11.05;5.82;;;11.00;99.90;;;;;;4966167;28;20030;-72
2024/02/16 06:22:09;;;;;;;11.70;5.32;;;11.00;99.90;;;;;;4965623;28;20052;-72
2024/02/16 06:24:36;;;;;;;8.52;4.97;;;11.00;99.90;;;;;;4965018;28;20122;-72
2024/02/16 06:27:03;;;;;;;8.82;4.80;;;11.00;99.90;;;;;;4965521;28;20054;-72
2024/02/16 06:29:30;;;;;;;8.52;4.93;;;11.10;99.90;;;;;;4964430;28;20027;-72
2024/02/16 06:31:56;;;;;;;9.57;5.38;;;11.10;99.90;;;;;;4963027;28;20035;-72
2024/02/16 06:34:22;;;;;;;8.95;5.28;;;11.20;99.90;;;;;;4964273;28;20072;-72
2024/02/16 06:36:48;;;;;;;9.93;5.00;;;11.20;99.90;;;;;;4965419;28;20097;-72
2024/02/16 06:39:19;;;;;;;9.75;4.80;;;11.30;99.90;;;;;;4963939;28;20459;-72
2024/02/16 06:41:49;;;;;;;8.48;5.07;;;11.30;99.90;;;;;;4965724;28;20499;-72
2024/02/16 06:44:16;;;;;;;9.63;5.40;;;11.30;99.90;;;;;;4965115;28;20035;-73
2024/02/16 06:46:43;;;;;;;8.75;4.90;;;11.30;99.90;;;;;;4963922;28;20038;-73
2024/02/16 06:49:09;;;;;;;8.48;4.95;;;11.20;99.90;;;;;;4963083;28;20035;-73
2024/02/16 06:51:37;;;;;;;10.23;4.63;;;11.20;99.90;;;;;;4962988;28;20054;-72
2024/02/16 06:54:03;;;;;;;6.70;4.38;;;11.20;99.90;;;;;;4964822;28;20027;-72
2024/02/16 06:56:30;;;;;;;6.55;4.97;;;11.20;99.90;;;;;;4964705;28;20038;-72
2024/02/16 06:58:56;;;;;;;8.55;5.22;;;11.20;99.90;;;;;;4965089;28;20218;-72
2024/02/16 07:01:22;;;;;;;7.90;4.68;;;11.20;99.90;;;;;;4961542;28;20149;-72
2024/02/16 07:03:48;;;;;;;8.05;4.80;;;11.20;99.90;;;;;;4965373;28;20065;-72
2024/02/16 07:06:14;;;;;;;8.43;4.75;;;11.10;99.90;;;;;;4964783;28;20042;-72
2024/02/16 07:08:40;;;;;;;9.98;4.60;;;11.10;99.90;;;;;;4965087;28;20620;-72
2024/02/16 07:11:06;;;;;;;8.40;4.65;;;11.10;99.90;;;;;;4964494;28;20034;-72
2024/02/16 07:13:33;;;;;;;9.00;4.78;;;11.20;99.90;;;;;;4965123;28;20035;-72
2024/02/16 07:16:00;;;;;;;9.93;4.97;;;11.20;99.90;;;;;;4964418;28;20042;-72
2024/02/16 07:18:26;;;;;;;7.47;4.60;;;11.20;99.90;;;;;;4964781;28;20118;-72
2024/02/16 07:20:52;;;;;;;8.07;4.85;;;11.30;99.90;;;;;;4963520;28;20031;-72
2024/02/16 07:23:17;;;;;;;6.53;4.28;;;11.30;99.90;;;;;;4964576;28;20093;-72
2024/02/16 07:25:43;;;;;;;8.20;4.57;;;11.30;99.90;;;;;;4964600;28;20042;-72
2024/02/16 07:28:09;;;;;;;9.00;4.65;;;11.40;99.90;;;;;;4964250;28;20888;-72
2024/02/16 07:30:38;;;;;;;9.85;4.82;;;11.50;99.90;;;;;;4964347;28;20030;-73
2024/02/16 07:33:09;;;;;;;8.93;4.85;;;11.50;99.90;;;;;;4964246;28;20461;-73
2024/02/16 07:35:35;;;;;;;7.13;4.45;;;11.50;99.90;;;;;;4962662;28;20038;-73
2024/02/16 07:38:03;;;;;;;7.35;4.07;;;11.50;99.90;;;;;;4964451;28;20410;-72
2024/02/16 07:40:28;;;;;;;8.38;4.78;;;11.60;99.90;;;;;;4964079;28;20039;-72
2024/02/16 07:42:55;;;;;;;6.50;4.10;;;11.70;99.90;;;;;;4963861;28;20042;-73
2024/02/16 07:45:21;;;;;;;10.90;4.70;;;11.70;99.90;;;;;;4965225;28;20027;-73
2024/02/16 07:47:47;;;;;;;6.38;3.63;;;11.70;99.90;;;;;;4964464;28;20394;-72
2024/02/16 07:50:14;;;;;;;7.95;4.47;;;11.70;99.90;;;;;;4964270;28;20515;-73
2024/02/16 07:52:39;;;;;;;8.65;4.15;;;11.90;99.90;;;;;;4963125;28;20034;-73
2024/02/16 07:55:08;;;;;;;7.93;3.72;;;12.10;99.90;;;;;;4964708;28;20030;-73
2024/02/16 07:57:36;;;;;;;7.30;4.30;;;12.20;99.90;;;;;;4962523;28;20031;-73
2024/02/16 08:00:03;;;;;;;6.13;3.53;;;12.30;99.90;;;;;;4964333;28;20660;-73
2024/02/16 08:02:30;;;;;;;8.68;4.53;;;12.30;99.90;;;;;;4963626;28;20039;-73
2024/02/16 08:04:56;;;;;;;7.38;3.53;;;12.20;99.90;;;;;;4964594;28;20031;-73
2024/02/16 08:07:22;;;;;;;6.43;3.45;;;12.10;99.90;;;;;;4965112;28;20026;-72
2024/02/16 08:09:48;;;;;;;5.07;3.60;;;12.10;99.90;;;;;;4970673;28;20406;-73
2024/02/16 08:12:15;;;;;;;6.70;3.88;;;12.20;99.90;;;;;;4970964;28;20050;-73
2024/02/16 08:14:41;;;;;;;6.63;3.90;;;12.40;99.90;;;;;;4969667;28;20034;-73
2024/02/16 08:17:07;;;;;;;7.90;3.97;;;12.50;99.90;;;;;;4962920;28;20039;-72
2024/02/16 08:19:35;;;;;;;7.30;3.50;;;12.60;99.90;;;;;;4969420;28;20034;-72
2024/02/16 08:22:06;;;;;;;6.15;3.45;;;12.60;99.90;;;;;;4970630;28;20403;-72
2024/02/16 08:24:35;;;;;;;9.57;3.90;;;12.70;99.90;;;;;;4970341;28;20027;-71
2024/02/16 08:27:02;;;;;;;5.45;3.40;;;12.60;99.90;;;;;;4968787;28;20133;-73
2024/02/16 08:29:28;;;;;;;7.32;3.30;;;12.60;99.90;;;;;;4970722;28;20034;-72
2024/02/16 08:31:55;;;;;;;6.60;3.13;;;12.60;99.90;;;;;;4968476;28;20030;-72
2024/02/16 08:34:21;;;;;;;7.32;3.08;;;12.60;99.90;;;;;;4970182;28;20042;-72
2024/02/16 08:36:48;;;;;;;4.63;3.13;;;12.60;99.90;;;;;;4970242;28;20503;-73
2024/02/16 08:39:16;;;;;;;4.78;2.72;;;12.80;99.90;;;;;;4970120;28;20126;-73
2024/02/16 08:41:48;;;;;;;4.38;2.75;;;12.90;99.90;;;;;;4969866;28;20046;-71
2024/02/16 08:44:14;;;;;;;4.20;3.03;;;12.90;99.90;;;;;;4970149;28;20029;-73
2024/02/16 08:46:40;;;;;;;5.13;2.70;;;12.80;99.90;;;;;;4969752;28;20026;-72
2024/02/16 08:49:06;;;;;;;4.25;2.50;;;12.80;99.90;;;;;;4970624;28;20031;-72
2024/02/16 08:51:33;;;;;;;4.50;2.60;;;12.80;99.90;;;;;;4970231;28;20487;-72
2024/02/16 08:54:00;;;;;;;6.50;2.83;;;12.90;99.90;;;;;;4969113;28;20027;-72
2024/02/16 08:56:27;;;;;;;5.88;2.55;;;13.10;99.90;;;;;;4968483;28;20030;-72
2024/02/16 08:58:52;;;;;;;3.25;2.00;;;13.10;99.90;;;;;;4968950;28;20078;-72
2024/02/16 09:01:18;;;;;;;4.10;2.58;;;13.20;99.90;;;;;;4970198;28;20066;-72
2024/02/16 09:03:44;;;;;;;7.63;2.88;;;13.20;99.90;;;;;;4970922;28;20034;-72
2024/02/16 09:06:10;;;;;;;5.47;2.30;;;13.20;99.90;;;;;;4970673;28;20078;-72
2024/02/16 09:08:36;;;;;;;4.50;2.50;;;13.30;99.90;;;;;;4970144;28;20034;-72
2024/02/16 09:11:05;;;;;;;5.25;2.45;;;13.40;99.90;;;;;;4969043;28;20685;-72
2024/02/16 09:13:32;;;;;;;4.15;2.58;;;13.50;99.90;;;;;;4970477;28;20030;-72
2024/02/16 09:15:59;;;;;;;5.10;2.67;;;13.60;99.90;;;;;;4959579;28;20154;-72
2024/02/16 09:18:25;;;;;;;7.32;2.08;;;13.70;99.90;;;;;;4967195;28;20038;-72
2024/02/16 09:20:51;;;;;;;3.00;2.28;;;13.70;99.90;;;;;;4966690;28;20043;-72
2024/02/16 09:23:17;;;;;;;4.35;2.70;;;13.80;99.90;;;;;;4966575;28;20035;-72
2024/02/16 09:25:45;;;;;;;4.57;2.50;;;13.80;99.90;;;;;;4967228;28;20086;-72
2024/02/16 09:28:12;;;;;;;5.05;2.33;;;13.80;99.90;;;;;;4966996;28;20569;-72
2024/02/16 09:30:38;;;;;;;3.50;2.40;;;13.70;99.90;;;;;;4966894;28;20102;-72
2024/02/16 09:33:04;;;;;;;5.32;2.42;;;13.80;99.90;;;;;;4965301;28;20027;-72
2024/02/16 09:35:31;;;;;;;3.60;2.70;;;13.70;99.90;;;;;;4967145;28;20034;-72
2024/02/16 09:37:57;;;;;;;4.22;2.28;;;13.90;99.90;;;;;;4965971;28;20542;-72
2024/02/16 09:40:23;;;;;;;3.22;2.08;;;14.00;99.90;;;;;;4973257;28;20030;-72
2024/02/16 09:42:49;;;;;;;3.03;2.13;;;14.20;99.90;;;;;;4966627;28;20031;-72
2024/02/16 09:45:15;;;;;;;5.20;2.25;;;14.20;99.90;;;;;;4965850;28;20023;-72
2024/02/16 09:47:49;;;;;;;5.75;2.40;;;14.10;99.90;;;;;;4965416;28;20031;-72
2024/02/16 09:50:16;;;;;;;4.93;2.70;;;14.10;99.90;;;;;;4965404;28;20086;-72
2024/02/16 09:52:50;;;;;;;3.35;1.90;;;14.10;99.90;;;;;;4964629;28;20030;-72
2024/02/16 09:55:17;;;;;;;3.33;2.20;;;14.10;99.90;;;;;;4965181;28;20034;-72
2024/02/16 09:57:44;;;;;;;5.18;1.90;;;14.30;99.90;;;;;;4965555;28;20146;-73
2024/02/16 10:00:11;;;;;;;3.40;1.80;;;14.50;99.90;;;;;;4964908;28;20050;-71
2024/02/16 10:02:44;;;;;;;2.53;1.80;;;14.50;99.90;;;;;;4965863;28;20058;-71
2024/02/16 10:05:31;;;;;;;4.07;2.00;;;14.60;99.90;;;;;;4966585;28;20027;-71
2024/02/16 10:07:57;;;;;;;3.05;1.83;;;14.60;99.90;;;;;;4966155;28;20399;-70
2024/02/16 10:10:23;;;;;;;2.30;1.65;;;14.50;99.90;;;;;;4966162;28;20034;-70
2024/02/16 10:12:49;;;;;;;5.38;1.88;;;14.60;99.90;;;;;;4965373;28;20109;-70
2024/02/16 10:15:24;;;;;;;2.72;2.15;;;14.70;99.90;;;;;;4966067;28;20090;-70
2024/02/16 10:18:05;;;;;;;2.58;2.10;;;14.70;99.90;;;;;;4965802;28;20138;-71
2024/02/16 10:20:32;;;;;;;3.75;2.13;;;14.60;99.90;;;;;;4966436;28;20482;-71
2024/02/16 10:23:11;;;;;;;4.13;2.10;;;14.50;99.90;;;;;;4964723;28;20035;-71
2024/02/16 10:25:40;;;;;;;4.28;1.90;;;14.50;99.90;;;;;;4965156;28;20033;-71
2024/02/16 10:28:12;;;;;;;4.78;2.00;;;14.60;99.90;;;;;;4963708;28;20035;-71
2024/02/16 10:30:40;;;;;;;4.25;1.80;;;14.50;99.90;;;;;;4965375;28;20577;-68
2024/02/16 10:33:09;;;;;;;4.60;2.47;;;14.50;99.90;;;;;;4966101;28;20031;-72
2024/02/16 10:35:36;;;;;;;3.90;1.90;;;14.50;99.90;;;;;;4966515;28;20696;-72
2024/02/16 10:38:06;;;;;;;4.30;2.50;;;14.60;99.90;;;;;;4965682;28;20031;-71
2024/02/16 10:40:40;;;;;;;3.53;2.17;;;14.60;99.90;;;;;;4965580;28;20561;-71
2024/02/16 10:43:07;;;;;;;4.18;2.35;;;14.70;99.90;;;;;;4948882;28;20042;-71
2024/02/16 10:45:38;;;;;;;2.38;1.70;;;14.80;99.90;;;;;;4966863;28;20102;-71
2024/02/16 10:48:06;;;;;;;3.53;2.35;;;14.90;99.90;;;;;;4964350;28;20061;-71
2024/02/16 10:50:36;;;;;;;3.30;2.00;;;15.00;99.90;;;;;;4965497;28;20145;-71
2024/02/16 10:53:24;;;;;;;3.92;1.80;;;15.10;99.90;;;;;;4944996;28;20030;-71
2024/02/16 10:55:50;;;;;;;3.42;1.83;;;15.20;99.90;;;;;;4965654;28;20035;-69
2024/02/16 10:58:18;;;;;;;4.10;2.10;;;15.40;99.90;;;;;;4965519;28;20182;-72
2024/02/16 11:00:51;;;;;;;4.05;1.98;;;15.60;99.90;;;;;;4947463;28;20034;-72
2024/02/16 11:03:23;;;;;;;2.90;1.92;;;15.90;99.90;;;;;;4965441;28;20554;-72
2024/02/16 11:05:49;;;;;;;3.03;1.98;;;15.90;99.90;;;;;;4965513;28;20174;-72
2024/02/16 11:08:17;;;;;;;4.20;2.05;;;15.90;99.90;;;;;;4966063;28;20027;-71
2024/02/16 11:10:59;;;;;;;3.83;1.92;;;16.10;99.90;;;;;;4964911;28;20041;-72
2024/02/16 11:13:32;;;;;;;4.25;1.92;;;16.20;99.90;;;;;;4964854;28;20764;-71
2024/02/16 11:16:00;;;;;;;3.33;1.95;;;16.30;99.90;;;;;;4947287;28;20058;-72
2024/02/16 11:18:27;;;;;;;4.63;2.03;;;16.10;99.90;;;;;;4965347;28;20026;-71
2024/02/16 11:20:56;;;;;;;3.47;2.25;;;16.00;99.90;;;;;;4963193;28;20066;-71
2024/02/16 11:23:29;;;;;;;2.97;1.90;;;15.90;99.90;;;;;;4964445;28;20030;-72
2024/02/16 11:26:00;;;;;;;2.13;1.80;;;16.00;99.90;;;;;;4965382;28;20443;-71
2024/02/16 11:28:28;;;;;;;2.92;1.88;;;16.00;99.90;;;;;;4965442;28;20037;-72
2024/02/16 11:30:53;;;;;;;3.13;1.98;;;16.10;99.90;;;;;;4964442;28;20042;-71
2024/02/16 11:33:19;;;;;;;3.42;1.65;;;16.20;99.90;;;;;;4964928;28;20026;-71
2024/02/16 11:35:57;;;;;;;3.42;1.60;;;16.00;99.90;;;;;;4964865;28;20027;-71
2024/02/16 11:38:23;;;;;;;2.67;1.52;;;15.90;99.90;;;;;;4964568;28;20026;-72
2024/02/16 11:40:59;;;;;;;3.15;1.77;;;16.10;99.90;;;;;;4964651;28;20100;-70
2024/02/16 11:43:25;;;;;;;2.88;1.60;;;16.30;99.90;;;;;;4962395;28;20031;-72
2024/02/16 11:45:51;;;;;;;2.83;1.83;;;16.60;99.90;;;;;;4963170;28;20042;-71
2024/02/16 11:48:25;;;;;;;2.58;1.77;;;16.90;99.90;;;;;;4964806;28;20037;-73
2024/02/16 11:51:02;;;;;;;3.10;1.80;;;17.00;99.90;;;;;;4964573;28;20026;-73
2024/02/16 11:53:31;;;;;;;3.67;1.70;;;17.00;99.90;;;;;;4966126;28;20038;-73
2024/02/16 11:55:57;;;;;;;3.05;2.00;;;16.90;99.90;;;;;;4966067;28;20038;-73
2024/02/16 11:58:24;;;;;;;2.25;1.45;;;16.80;99.90;;;;;;4949949;28;20130;-73
2024/02/16 12:00:51;;;;;;;3.38;1.70;;;16.70;99.90;;;;;;4962764;28;20035;-73
2024/02/16 12:03:23;;;;;;;3.28;2.05;;;16.80;99.90;;;;;;4946800;28;20030;-74
2024/02/16 12:05:57;;;;;;;2.40;1.50;;;16.90;99.90;;;;;;4960790;28;20022;-74
2024/02/16 12:08:24;;;;;;;1.63;1.40;;;17.10;99.90;;;;;;4962404;28;20022;-73
2024/02/16 12:10:51;;;;;;;4.30;1.80;;;17.10;99.90;;;;;;4953458;28;20045;-73
2024/02/16 12:13:18;;;;;;;2.97;1.52;;;17.20;99.90;;;;;;4963920;28;20031;-73
2024/02/16 12:15:49;;;;;;;1.52;1.30;;;17.20;99.90;;;;;;4964899;28;20034;-73
2024/02/16 12:18:22;;;;;;;5.40;1.70;;;17.20;99.90;;;;;;4964740;28;20121;-73
2024/02/16 12:21:02;;;;;;;3.30;1.70;;;17.20;99.90;;;;;;4964084;28;20120;-73
2024/02/16 12:23:30;;;;;;;2.63;1.80;;;17.30;99.90;;;;;;4964046;28;20118;-73
2024/02/16 12:25:56;;;;;;;6.13;2.05;;;17.30;99.90;;;;;;4963228;28;20038;-73
2024/02/16 12:28:26;;;;;;;4.45;2.38;;;17.20;99.90;;;;;;4962430;28;20142;-73
2024/02/16 12:30:52;;;;;;;4.32;1.75;;;17.20;99.90;;;;;;4962342;28;20034;-73
2024/02/16 12:33:18;;;;;;;4.18;1.52;;;17.20;99.90;;;;;;4964604;28;20084;-73
2024/02/16 12:35:43;;;;;;;3.20;1.55;;;17.20;99.90;;;;;;4962395;28;20669;-73
2024/02/16 12:38:11;;;;;;;2.63;1.40;;;17.20;99.90;;;;;;4965023;28;20659;-72
2024/02/16 12:40:37;;;;;;;1.25;1.10;;;17.10;99.90;;;;;;4965380;28;20059;-73
2024/02/16 12:43:03;;;;;;;2.70;1.15;;;16.90;99.90;;;;;;4963944;28;20439;-73